sensor_id;sensor_type;location;lat;lon;timestamp;P1;durP1;ratioP1;P2;durP2;ratioP2
9234;SDS011;4652;42.716;23.218;2022-12-29T00:04:28;40.90;;;31.03;;
9234;SDS011;4652;42.716;23.218;2022-12-29T00:11:12;42.83;;;29.97;;
9234;SDS011;4652;42.716;23.218;2022-12-29T00:17:57;43.80;;;30.23;;
9234;SDS011;4652;42.716;23.218;2022-12-29T00:24:40;45.43;;;30.70;;
9234;SDS011;4652;42.716;23.218;2022-12-29T00:31:41;40.20;;;29.90;;
9234;SDS011;4652;42.716;23.218;2022-12-29T00:38:42;45.00;;;30.23;;
9234;SDS011;4652;42.716;23.218;2022-12-29T00:45:43;48.30;;;35.40;;
9234;SDS011;4652;42.716;23.218;2022-12-29T00:52:27;45.57;;;33.43;;
9234;SDS011;4652;42.716;23.218;2022-12-29T00:59:09;43.97;;;32.10;;
9234;SDS011;4652;42.716;23.218;2022-12-29T01:05:51;41.83;;;30.90;;
9234;SDS011;4652;42.716;23.218;2022-12-29T01:12:35;40.33;;;30.30;;
9234;SDS011;4652;42.716;23.218;2022-12-29T01:19:25;42.27;;;29.30;;
9234;SDS011;4652;42.716;23.218;2022-12-29T01:26:10;38.07;;;28.13;;
9234;SDS011;4652;42.716;23.218;2022-12-29T01:32:54;40.07;;;29.33;;
9234;SDS011;4652;42.716;23.218;2022-12-29T01:39:36;38.30;;;28.73;;
9234;SDS011;4652;42.716;23.218;2022-12-29T01:46:20;38.93;;;29.27;;
9234;SDS011;4652;42.716;23.218;2022-12-29T01:53:08;36.57;;;27.57;;
9234;SDS011;4652;42.716;23.218;2022-12-29T01:59:53;38.07;;;28.10;;
9234;SDS011;4652;42.716;23.218;2022-12-29T02:08:04;36.93;;;27.50;;
9234;SDS011;4652;42.716;23.218;2022-12-29T02:14:46;37.80;;;27.83;;
9234;SDS011;4652;42.716;23.218;2022-12-29T02:21:43;38.27;;;27.17;;
9234;SDS011;4652;42.716;23.218;2022-12-29T02:29:04;38.60;;;28.07;;
9234;SDS011;4652;42.716;23.218;2022-12-29T02:36:12;36.10;;;25.83;;
9234;SDS011;4652;42.716;23.218;2022-12-29T02:43:03;34.60;;;25.53;;
9234;SDS011;4652;42.716;23.218;2022-12-29T02:49:56;34.40;;;25.77;;
9234;SDS011;4652;42.716;23.218;2022-12-29T02:56:44;32.60;;;25.23;;
9234;SDS011;4652;42.716;23.218;2022-12-29T03:03:28;34.13;;;25.00;;
9234;SDS011;4652;42.716;23.218;2022-12-29T03:10:24;31.40;;;24.97;;
9234;SDS011;4652;42.716;23.218;2022-12-29T03:17:18;33.13;;;22.70;;
9234;SDS011;4652;42.716;23.218;2022-12-29T03:24:08;32.17;;;22.43;;
9234;SDS011;4652;42.716;23.218;2022-12-29T03:30:50;28.77;;;21.63;;
9234;SDS011;4652;42.716;23.218;2022-12-29T03:37:34;26.23;;;20.53;;
9234;SDS011;4652;42.716;23.218;2022-12-29T03:44:19;27.93;;;21.47;;
9234;SDS011;4652;42.716;23.218;2022-12-29T03:51:01;30.17;;;22.60;;
9234;SDS011;4652;42.716;23.218;2022-12-29T03:57:45;29.47;;;21.87;;
9234;SDS011;4652;42.716;23.218;2022-12-29T04:04:27;28.40;;;21.43;;
9234;SDS011;4652;42.716;23.218;2022-12-29T04:11:09;30.97;;;22.07;;
9234;SDS011;4652;42.716;23.218;2022-12-29T04:17:52;30.13;;;21.37;;
9234;SDS011;4652;42.716;23.218;2022-12-29T04:24:34;31.10;;;22.80;;
9234;SDS011;4652;42.716;23.218;2022-12-29T04:31:16;34.17;;;23.40;;
9234;SDS011;4652;42.716;23.218;2022-12-29T04:38:00;36.30;;;24.60;;
9234;SDS011;4652;42.716;23.218;2022-12-29T04:44:42;35.43;;;25.27;;
9234;SDS011;4652;42.716;23.218;2022-12-29T04:51:25;40.57;;;27.10;;
9234;SDS011;4652;42.716;23.218;2022-12-29T04:58:08;35.57;;;26.13;;
9234;SDS011;4652;42.716;23.218;2022-12-29T05:04:50;35.67;;;25.00;;
9234;SDS011;4652;42.716;23.218;2022-12-29T05:11:32;37.73;;;25.77;;
9234;SDS011;4652;42.716;23.218;2022-12-29T05:18:17;36.53;;;25.60;;
9234;SDS011;4652;42.716;23.218;2022-12-29T05:24:59;36.87;;;25.93;;
9234;SDS011;4652;42.716;23.218;2022-12-29T05:31:41;42.30;;;24.83;;
9234;SDS011;4652;42.716;23.218;2022-12-29T05:38:25;38.97;;;27.70;;
9234;SDS011;4652;42.716;23.218;2022-12-29T05:45:08;34.93;;;25.27;;
9234;SDS011;4652;42.716;23.218;2022-12-29T05:59:11;40.57;;;28.17;;
9234;SDS011;4652;42.716;23.218;2022-12-29T06:05:53;38.30;;;28.00;;
9234;SDS011;4652;42.716;23.218;2022-12-29T06:12:36;42.97;;;29.43;;
9234;SDS011;4652;42.716;23.218;2022-12-29T06:19:20;41.43;;;29.20;;
9234;SDS011;4652;42.716;23.218;2022-12-29T06:26:02;43.07;;;30.60;;
9234;SDS011;4652;42.716;23.218;2022-12-29T06:32:44;44.27;;;31.13;;
9234;SDS011;4652;42.716;23.218;2022-12-29T06:39:28;48.57;;;35.20;;
9234;SDS011;4652;42.716;23.218;2022-12-29T06:46:10;51.20;;;36.37;;
9234;SDS011;4652;42.716;23.218;2022-12-29T06:52:52;54.83;;;36.57;;
9234;SDS011;4652;42.716;23.218;2022-12-29T06:59:36;48.47;;;34.10;;
9234;SDS011;4652;42.716;23.218;2022-12-29T07:06:18;46.63;;;34.17;;
9234;SDS011;4652;42.716;23.218;2022-12-29T07:13:01;34.10;;;24.90;;
9234;SDS011;4652;42.716;23.218;2022-12-29T07:19:44;33.20;;;25.77;;
9234;SDS011;4652;42.716;23.218;2022-12-29T07:26:26;33.30;;;24.50;;
9234;SDS011;4652;42.716;23.218;2022-12-29T07:33:08;29.47;;;23.20;;
9234;SDS011;4652;42.716;23.218;2022-12-29T07:39:52;28.33;;;22.10;;
9234;SDS011;4652;42.716;23.218;2022-12-29T07:46:34;27.73;;;20.87;;
9234;SDS011;4652;42.716;23.218;2022-12-29T07:53:17;25.53;;;19.90;;
9234;SDS011;4652;42.716;23.218;2022-12-29T08:00:00;26.37;;;20.13;;
9234;SDS011;4652;42.716;23.218;2022-12-29T08:08:02;29.23;;;22.53;;
9234;SDS011;4652;42.716;23.218;2022-12-29T08:14:45;29.50;;;22.70;;
9234;SDS011;4652;42.716;23.218;2022-12-29T08:21:27;27.60;;;21.17;;
9234;SDS011;4652;42.716;23.218;2022-12-29T08:28:11;29.97;;;21.97;;
9234;SDS011;4652;42.716;23.218;2022-12-29T08:34:53;27.97;;;21.13;;
9234;SDS011;4652;42.716;23.218;2022-12-29T08:41:35;27.93;;;22.37;;
9234;SDS011;4652;42.716;23.218;2022-12-29T08:48:18;31.17;;;23.50;;
9234;SDS011;4652;42.716;23.218;2022-12-29T08:55:02;27.30;;;22.00;;
9234;SDS011;4652;42.716;23.218;2022-12-29T09:01:44;27.93;;;21.83;;
9234;SDS011;4652;42.716;23.218;2022-12-29T09:08:29;23.87;;;19.17;;
9234;SDS011;4652;42.716;23.218;2022-12-29T09:15:10;28.07;;;21.43;;
9234;SDS011;4652;42.716;23.218;2022-12-29T09:21:53;23.53;;;17.97;;
9234;SDS011;4652;42.716;23.218;2022-12-29T09:28:37;24.37;;;19.70;;
9234;SDS011;4652;42.716;23.218;2022-12-29T09:35:19;24.87;;;19.13;;
9234;SDS011;4652;42.716;23.218;2022-12-29T09:42:02;25.77;;;18.83;;
9234;SDS011;4652;42.716;23.218;2022-12-29T09:48:51;23.97;;;18.40;;
9234;SDS011;4652;42.716;23.218;2022-12-29T09:55:40;23.97;;;17.40;;
9234;SDS011;4652;42.716;23.218;2022-12-29T10:02:29;21.00;;;16.20;;
9234;SDS011;4652;42.716;23.218;2022-12-29T10:09:19;23.43;;;16.30;;
9234;SDS011;4652;42.716;23.218;2022-12-29T10:16:08;31.63;;;25.20;;
9234;SDS011;4652;42.716;23.218;2022-12-29T10:23:02;30.17;;;21.97;;
9234;SDS011;4652;42.716;23.218;2022-12-29T10:29:57;45.57;;;33.77;;
9234;SDS011;4652;42.716;23.218;2022-12-29T10:36:41;56.80;;;42.67;;
9234;SDS011;4652;42.716;23.218;2022-12-29T10:43:30;92.83;;;72.57;;
9234;SDS011;4652;42.716;23.218;2022-12-29T10:50:18;55.20;;;42.20;;
9234;SDS011;4652;42.716;23.218;2022-12-29T10:57:01;48.90;;;35.87;;
9234;SDS011;4652;42.716;23.218;2022-12-29T11:03:51;43.77;;;32.47;;
9234;SDS011;4652;42.716;23.218;2022-12-29T11:10:56;38.20;;;27.47;;
9234;SDS011;4652;42.716;23.218;2022-12-29T11:17:43;42.33;;;33.27;;
9234;SDS011;4652;42.716;23.218;2022-12-29T11:24:27;33.47;;;25.40;;
9234;SDS011;4652;42.716;23.218;2022-12-29T11:31:15;31.40;;;22.10;;
9234;SDS011;4652;42.716;23.218;2022-12-29T11:37:57;31.10;;;21.77;;
9234;SDS011;4652;42.716;23.218;2022-12-29T11:44:42;24.63;;;19.67;;
9234;SDS011;4652;42.716;23.218;2022-12-29T11:51:28;29.70;;;21.87;;
9234;SDS011;4652;42.716;23.218;2022-12-29T11:58:12;28.03;;;19.93;;
9234;SDS011;4652;42.716;23.218;2022-12-29T12:04:59;23.73;;;19.17;;
9234;SDS011;4652;42.716;23.218;2022-12-29T12:11:48;26.30;;;19.17;;
9234;SDS011;4652;42.716;23.218;2022-12-29T12:18:37;48.03;;;33.60;;
9234;SDS011;4652;42.716;23.218;2022-12-29T12:25:23;27.63;;;19.47;;
9234;SDS011;4652;42.716;23.218;2022-12-29T12:32:13;53.20;;;39.10;;
9234;SDS011;4652;42.716;23.218;2022-12-29T12:39:00;34.57;;;24.03;;
9234;SDS011;4652;42.716;23.218;2022-12-29T12:45:52;33.77;;;22.67;;
9234;SDS011;4652;42.716;23.218;2022-12-29T12:52:47;47.90;;;31.40;;
9234;SDS011;4652;42.716;23.218;2022-12-29T12:59:42;27.37;;;20.47;;
9234;SDS011;4652;42.716;23.218;2022-12-29T13:06:35;32.93;;;21.67;;
9234;SDS011;4652;42.716;23.218;2022-12-29T13:13:34;41.90;;;28.47;;
9234;SDS011;4652;42.716;23.218;2022-12-29T13:20:32;47.63;;;31.40;;
9234;SDS011;4652;42.716;23.218;2022-12-29T13:27:23;237.97;;;144.47;;
9234;SDS011;4652;42.716;23.218;2022-12-29T13:34:18;206.67;;;145.63;;
9234;SDS011;4652;42.716;23.218;2022-12-29T13:41:27;79.47;;;49.60;;
9234;SDS011;4652;42.716;23.218;2022-12-29T13:48:14;79.27;;;52.67;;
9234;SDS011;4652;42.716;23.218;2022-12-29T13:55:01;83.70;;;54.83;;
9234;SDS011;4652;42.716;23.218;2022-12-29T14:32:39;34.70;;;26.40;;
9234;SDS011;4652;42.716;23.218;2022-12-29T14:39:44;47.97;;;33.17;;
9234;SDS011;4652;42.716;23.218;2022-12-29T14:46:41;46.27;;;33.07;;
9234;SDS011;4652;42.716;23.218;2022-12-29T14:53:43;44.37;;;30.83;;
9234;SDS011;4652;42.716;23.218;2022-12-29T15:00:27;42.10;;;29.73;;
9234;SDS011;4652;42.716;23.218;2022-12-29T15:07:13;51.70;;;34.20;;
9234;SDS011;4652;42.716;23.218;2022-12-29T15:13:58;49.67;;;33.07;;
9234;SDS011;4652;42.716;23.218;2022-12-29T15:20:40;53.40;;;34.50;;
9234;SDS011;4652;42.716;23.218;2022-12-29T15:27:24;59.47;;;37.97;;
9234;SDS011;4652;42.716;23.218;2022-12-29T15:34:11;63.00;;;37.67;;
9234;SDS011;4652;42.716;23.218;2022-12-29T15:40:55;53.10;;;34.97;;
9234;SDS011;4652;42.716;23.218;2022-12-29T15:47:42;55.17;;;33.10;;
9234;SDS011;4652;42.716;23.218;2022-12-29T15:54:30;47.87;;;32.03;;
9234;SDS011;4652;42.716;23.218;2022-12-29T16:01:17;48.87;;;29.47;;
9234;SDS011;4652;42.716;23.218;2022-12-29T16:08:00;48.00;;;30.40;;
9234;SDS011;4652;42.716;23.218;2022-12-29T16:14:46;48.97;;;30.37;;
9234;SDS011;4652;42.716;23.218;2022-12-29T16:21:32;46.10;;;29.30;;
9234;SDS011;4652;42.716;23.218;2022-12-29T16:28:17;45.77;;;29.23;;
9234;SDS011;4652;42.716;23.218;2022-12-29T16:35:09;43.63;;;28.47;;
9234;SDS011;4652;42.716;23.218;2022-12-29T16:41:54;43.57;;;31.03;;
9234;SDS011;4652;42.716;23.218;2022-12-29T16:48:45;58.73;;;37.00;;
9234;SDS011;4652;42.716;23.218;2022-12-29T16:55:30;65.57;;;41.63;;
9234;SDS011;4652;42.716;23.218;2022-12-29T17:02:14;46.80;;;30.73;;
9234;SDS011;4652;42.716;23.218;2022-12-29T17:08:57;43.87;;;28.87;;
9234;SDS011;4652;42.716;23.218;2022-12-29T17:15:40;43.83;;;28.17;;
9234;SDS011;4652;42.716;23.218;2022-12-29T17:22:23;39.77;;;26.43;;
9234;SDS011;4652;42.716;23.218;2022-12-29T20:08:06;71.23;;;47.23;;
9234;SDS011;4652;42.716;23.218;2022-12-29T20:14:49;65.27;;;46.13;;
9234;SDS011;4652;42.716;23.218;2022-12-29T20:21:30;68.50;;;44.37;;
9234;SDS011;4652;42.716;23.218;2022-12-29T20:28:14;65.73;;;43.40;;
9234;SDS011;4652;42.716;23.218;2022-12-29T20:34:56;60.83;;;41.00;;
9234;SDS011;4652;42.716;23.218;2022-12-29T20:41:38;61.57;;;41.80;;
9234;SDS011;4652;42.716;23.218;2022-12-29T20:48:22;59.27;;;41.13;;
9234;SDS011;4652;42.716;23.218;2022-12-29T20:55:04;57.43;;;39.60;;
9234;SDS011;4652;42.716;23.218;2022-12-29T21:01:46;52.67;;;38.27;;
9234;SDS011;4652;42.716;23.218;2022-12-29T21:08:30;60.73;;;40.17;;
9234;SDS011;4652;42.716;23.218;2022-12-29T21:15:12;58.93;;;38.93;;
9234;SDS011;4652;42.716;23.218;2022-12-29T21:21:54;56.30;;;37.93;;
9234;SDS011;4652;42.716;23.218;2022-12-29T21:28:39;61.43;;;39.17;;
9234;SDS011;4652;42.716;23.218;2022-12-29T21:35:25;57.83;;;38.33;;
9234;SDS011;4652;42.716;23.218;2022-12-29T21:42:07;55.30;;;38.40;;
9234;SDS011;4652;42.716;23.218;2022-12-29T21:48:51;65.17;;;44.23;;
9234;SDS011;4652;42.716;23.218;2022-12-29T21:55:33;56.73;;;37.27;;
9234;SDS011;4652;42.716;23.218;2022-12-29T22:02:16;54.50;;;37.87;;
9234;SDS011;4652;42.716;23.218;2022-12-29T22:09:36;53.60;;;37.30;;
9234;SDS011;4652;42.716;23.218;2022-12-29T22:16:36;58.03;;;38.70;;
9234;SDS011;4652;42.716;23.218;2022-12-29T22:23:17;53.63;;;35.13;;
9234;SDS011;4652;42.716;23.218;2022-12-29T22:30:01;56.37;;;37.47;;
9234;SDS011;4652;42.716;23.218;2022-12-29T22:36:43;57.03;;;38.90;;
9234;SDS011;4652;42.716;23.218;2022-12-29T22:43:25;56.37;;;38.47;;
9234;SDS011;4652;42.716;23.218;2022-12-29T22:50:10;52.07;;;37.13;;
9234;SDS011;4652;42.716;23.218;2022-12-29T22:56:52;54.63;;;37.00;;
9234;SDS011;4652;42.716;23.218;2022-12-29T23:03:34;54.37;;;38.23;;
9234;SDS011;4652;42.716;23.218;2022-12-29T23:10:18;57.73;;;38.70;;
9234;SDS011;4652;42.716;23.218;2022-12-29T23:17:00;53.17;;;37.10;;
9234;SDS011;4652;42.716;23.218;2022-12-29T23:23:42;54.53;;;38.73;;
9234;SDS011;4652;42.716;23.218;2022-12-29T23:30:35;61.90;;;39.70;;
9234;SDS011;4652;42.716;23.218;2022-12-29T23:37:17;58.30;;;39.73;;
9234;SDS011;4652;42.716;23.218;2022-12-29T23:43:59;59.43;;;41.63;;
9234;SDS011;4652;42.716;23.218;2022-12-29T23:50:43;58.60;;;40.67;;
9234;SDS011;4652;42.716;23.218;2022-12-29T23:57:25;60.83;;;42.73;;
